createdAt,value
2023-06-21T05:32:01.000Z,18.20
2023-06-21T05:34:29.714Z,18.20
2023-06-21T05:36:57.119Z,18.50
2023-06-21T05:39:24.260Z,18.30
2023-06-21T05:41:51.383Z,18.20
2023-06-21T05:44:18.647Z,18.50
2023-06-21T05:46:45.900Z,18.10
2023-06-21T05:49:13.463Z,18.20
2023-06-21T05:51:40.743Z,18.20
2023-06-21T05:54:08.531Z,18.30
2023-06-21T05:56:38.823Z,18.10
2023-06-21T06:01:34.630Z,18.80
2023-06-21T06:06:39.895Z,18.80
2023-06-21T06:09:11.245Z,19.20
2023-06-21T06:11:39.318Z,19.40
2023-06-21T06:14:09.817Z,19.10
2023-06-21T06:16:37.414Z,19.00
2023-06-21T06:19:05.078Z,18.90
2023-06-21T06:21:32.350Z,18.90
2023-06-21T06:23:59.632Z,18.80
2023-06-21T06:26:27.596Z,18.90
2023-06-21T06:28:56.956Z,19.00
2023-06-21T06:31:26.880Z,19.20
2023-06-21T06:33:55.403Z,19.40
2023-06-21T06:36:23.302Z,19.70
2023-06-21T06:41:19.037Z,19.70
2023-06-21T06:43:47.662Z,19.70
2023-06-21T06:46:15.425Z,20.20
2023-06-21T06:48:44.257Z,19.90
2023-06-21T06:51:14.652Z,19.90
2023-06-21T06:53:43.415Z,20.10
2023-06-21T06:56:11.199Z,20.30
2023-06-21T06:58:39.054Z,20.20
2023-06-21T07:01:07.172Z,21.20
2023-06-21T07:03:35.884Z,22.10
2023-06-21T07:06:06.567Z,22.90
2023-06-21T07:08:33.885Z,23.70
2023-06-21T07:11:01.219Z,23.40
2023-06-21T07:13:29.069Z,24.30
2023-06-21T07:15:56.415Z,25.00
2023-06-21T07:18:23.740Z,24.60
2023-06-21T07:20:52.056Z,25.40
2023-06-21T07:23:19.556Z,25.10
2023-06-21T07:25:47.218Z,25.00
2023-06-21T07:28:14.769Z,25.20
2023-06-21T07:33:11.908Z,23.80
2023-06-21T07:35:39.206Z,23.70
2023-06-21T07:38:09.556Z,22.90
2023-06-21T07:40:37.064Z,23.00
2023-06-21T07:43:06.396Z,23.00
2023-06-21T07:50:29.438Z,24.60
2023-06-21T07:52:58.766Z,26.50
2023-06-21T07:55:26.080Z,27.70
2023-06-21T07:57:56.797Z,27.30
2023-06-21T08:00:25.137Z,26.40
2023-06-21T08:02:54.205Z,25.60
2023-06-21T08:05:23.008Z,26.30
2023-06-21T08:07:53.537Z,25.80
2023-06-21T08:10:33.481Z,25.10
2023-06-21T08:13:01.281Z,24.60
2023-06-21T08:15:29.944Z,24.20
2023-06-21T08:17:58.936Z,24.10
2023-06-21T08:20:27.126Z,23.90
2023-06-21T08:22:54.742Z,23.60
2023-06-21T08:27:50.242Z,23.30
2023-06-21T08:32:53.779Z,22.60
2023-06-21T08:38:06.200Z,21.90
2023-06-21T08:45:36.382Z,21.90
2023-06-21T08:48:07.015Z,21.80
2023-06-21T08:50:37.601Z,21.80
2023-06-21T08:53:08.098Z,21.80
2023-06-21T08:55:37.235Z,21.90
2023-06-21T08:58:18.220Z,21.80
2023-06-21T09:00:54.672Z,21.70
2023-06-21T09:03:27.649Z,21.60
2023-06-21T09:06:00.096Z,21.60
2023-06-21T09:10:56.653Z,21.60
2023-06-21T09:13:26.244Z,21.40
2023-06-21T09:15:59.521Z,21.50
2023-06-21T09:18:36.804Z,21.40
2023-06-21T09:33:26.192Z,20.70
2023-06-21T09:38:25.269Z,20.60
2023-06-21T09:40:53.465Z,19.40
2023-06-21T09:43:22.327Z,20.30
2023-06-21T09:45:59.704Z,20.20
2023-06-21T09:50:56.541Z,20.10
2023-06-21T09:56:01.502Z,20.10
2023-06-21T10:03:29.462Z,19.90
2023-06-21T10:05:59.494Z,19.90
2023-06-21T10:08:33.404Z,19.90
2023-06-21T10:11:02.373Z,19.80
2023-06-21T10:13:34.147Z,19.90
2023-06-21T10:16:03.196Z,19.90
2023-06-21T10:18:32.539Z,19.90
2023-06-21T10:21:05.002Z,19.90
2023-06-21T10:23:36.015Z,19.90
2023-06-21T10:26:08.386Z,20.10
2023-06-21T10:28:56.195Z,20.40
2023-06-21T10:31:26.728Z,20.50
2023-06-21T10:33:57.174Z,20.70
2023-06-21T10:36:33.195Z,20.80
2023-06-21T10:39:06.260Z,20.70
2023-06-21T10:41:35.155Z,20.90
2023-06-21T10:44:05.278Z,21.40
2023-06-21T10:46:36.058Z,21.20
2023-06-21T10:51:34.889Z,21.90
2023-06-21T10:54:03.063Z,22.20
2023-06-21T10:56:31.096Z,22.30
2023-06-21T11:01:28.327Z,22.90
2023-06-21T11:06:38.154Z,23.20
2023-06-21T11:09:13.854Z,23.40
2023-06-21T11:11:51.098Z,23.30
2023-06-21T11:14:32.167Z,23.80
2023-06-21T11:17:08.744Z,24.40
2023-06-21T11:19:38.566Z,24.40
2023-06-21T11:22:16.591Z,25.00
2023-06-21T11:25:00.143Z,25.60
2023-06-21T11:27:28.068Z,26.30
2023-06-21T11:30:01.843Z,26.60
2023-06-21T11:32:30.872Z,27.10
2023-06-21T11:35:01.209Z,27.10
2023-06-21T11:37:42.820Z,27.40
2023-06-21T11:40:12.563Z,27.10
2023-06-21T11:42:48.575Z,27.50
2023-06-21T11:45:36.474Z,27.30
2023-06-21T11:48:04.414Z,27.00
2023-06-21T11:50:37.617Z,26.70
2023-06-21T11:53:24.791Z,26.80
2023-06-21T11:55:57.774Z,26.40
2023-06-21T11:58:26.389Z,26.40
2023-06-21T12:00:55.262Z,26.70
2023-06-21T12:03:27.249Z,27.00
2023-06-21T12:06:02.363Z,26.70
2023-06-21T12:08:31.972Z,26.40
2023-06-21T12:11:09.870Z,26.80
2023-06-21T12:13:39.161Z,26.20
2023-06-21T12:16:08.595Z,26.60
2023-06-21T12:18:37.779Z,26.60
2023-06-21T12:21:08.210Z,26.60
2023-06-21T12:23:35.717Z,26.90
2023-06-21T12:26:07.814Z,26.10
2023-06-21T12:28:36.035Z,26.50
2023-06-21T12:31:06.082Z,26.30
2023-06-21T12:33:42.894Z,26.70
2023-06-21T12:36:24.249Z,26.70
2023-06-21T12:39:06.430Z,27.20
2023-06-21T12:41:35.096Z,27.20
2023-06-21T12:44:09.409Z,26.50
2023-06-21T12:46:41.921Z,26.50
2023-06-21T12:49:09.600Z,26.90
2023-06-21T12:51:38.136Z,26.90
2023-06-21T12:54:07.388Z,26.40
2023-06-21T12:56:42.867Z,26.40
2023-06-21T12:59:11.286Z,26.60
2023-06-21T13:01:39.517Z,26.40
2023-06-21T13:04:14.416Z,26.60
2023-06-21T13:09:11.466Z,27.10
2023-06-21T13:11:40.051Z,26.30
2023-06-21T13:14:08.152Z,25.90
2023-06-21T13:24:01.630Z,28.20
2023-06-21T13:26:30.017Z,28.10
2023-06-21T13:36:23.439Z,26.60
2023-06-21T13:38:50.620Z,27.00
2023-06-21T13:46:13.133Z,26.40
2023-06-21T13:48:40.581Z,27.40
2023-06-21T13:51:07.818Z,26.30
2023-06-21T13:53:34.959Z,26.80
2023-06-21T13:56:02.984Z,26.90
2023-06-21T13:58:30.956Z,27.10
2023-06-21T14:00:58.213Z,27.10
2023-06-21T14:03:25.492Z,26.60
2023-06-21T14:08:20.403Z,26.60
2023-06-21T14:10:49.304Z,27.00
2023-06-21T14:13:19.983Z,26.20
2023-06-21T14:15:51.626Z,26.20
2023-06-21T14:20:55.089Z,26.60
2023-06-21T14:23:23.449Z,26.90
2023-06-21T14:25:50.689Z,26.80
2023-06-21T14:28:17.874Z,27.10
2023-06-21T14:30:45.241Z,27.90
2023-06-21T14:43:02.765Z,27.80
2023-06-21T15:00:17.172Z,26.70
2023-06-21T15:07:41.255Z,27.20
2023-06-21T15:10:10.419Z,26.50
2023-06-21T15:17:51.604Z,26.50
2023-06-21T15:20:18.936Z,26.80
2023-06-21T15:25:14.105Z,26.90
2023-06-21T15:30:09.329Z,27.20
2023-06-21T15:35:04.404Z,27.60
2023-06-21T15:37:31.896Z,26.70
2023-06-21T15:49:50.395Z,26.50
2023-06-21T15:57:12.800Z,26.40
